createdAt,value
2022-08-11T00:02:29.711Z,99.90
2022-08-11T00:05:02.275Z,99.90
2022-08-11T00:07:31.056Z,99.90
2022-08-11T00:10:00.427Z,99.90
2022-08-11T00:12:29.016Z,99.90
2022-08-11T00:14:59.240Z,99.90
2022-08-11T00:17:33.516Z,99.90
2022-08-11T00:20:11.664Z,99.90
2022-08-11T00:22:45.314Z,99.90
2022-08-11T00:25:15.769Z,99.90
2022-08-11T00:27:44.725Z,99.90
2022-08-11T00:30:13.977Z,99.90
2022-08-11T00:32:46.010Z,99.90
2022-08-11T00:35:51.480Z,99.90
2022-08-11T00:38:06.876Z,99.90
2022-08-11T00:40:45.533Z,99.90
2022-08-11T00:43:23.686Z,99.90
2022-08-11T00:46:15.108Z,99.90
2022-08-11T00:48:59.261Z,99.90
2022-08-11T00:52:04.805Z,99.90
2022-08-11T00:54:55.937Z,99.90
2022-08-11T00:57:52.692Z,99.90
2022-08-11T01:00:23.201Z,99.90
2022-08-11T01:03:29.185Z,99.90
2022-08-11T01:09:10.424Z,99.90
2022-08-11T01:12:22.750Z,99.90
2022-08-11T01:15:36.596Z,99.90
2022-08-11T01:18:54.192Z,99.90
2022-08-11T01:22:03.681Z,99.90
2022-08-11T01:25:19.892Z,99.90
2022-08-11T01:28:23.543Z,99.90
2022-08-11T01:31:34.545Z,99.90
2022-08-11T01:34:51.217Z,99.90
2022-08-11T01:37:52.613Z,99.90
2022-08-11T01:40:42.365Z,99.90
2022-08-11T01:44:04.118Z,99.90
2022-08-11T01:46:47.229Z,99.90
2022-08-11T01:50:05.180Z,99.90
2022-08-11T01:52:20.422Z,99.90
2022-08-11T01:55:13.813Z,99.90
2022-08-11T01:57:48.483Z,99.90
2022-08-11T02:00:20.621Z,99.90
2022-08-11T02:02:59.602Z,99.90
2022-08-11T02:05:51.288Z,99.90
2022-08-11T02:08:33.209Z,99.90
2022-08-11T02:11:35.583Z,99.90
2022-08-11T02:14:23.025Z,99.90
2022-08-11T02:17:18.832Z,99.90
2022-08-11T02:20:12.867Z,99.90
2022-08-11T02:23:08.016Z,99.90
2022-08-11T02:25:39.877Z,99.90
2022-08-11T02:28:25.831Z,99.90
2022-08-11T02:32:15.625Z,99.90
2022-08-11T02:34:19.173Z,99.90
2022-08-11T02:36:57.047Z,99.90
2022-08-11T02:39:36.039Z,99.90
2022-08-11T02:42:35.502Z,99.90
2022-08-11T02:45:33.283Z,99.90
2022-08-11T02:48:24.881Z,99.90
2022-08-11T02:51:05.741Z,99.90
2022-08-11T02:53:40.359Z,99.90
2022-08-11T02:56:22.885Z,99.90
2022-08-11T02:59:17.962Z,99.90
2022-08-11T03:01:54.253Z,99.90
2022-08-11T03:04:45.060Z,99.90
2022-08-11T03:07:28.711Z,99.90
2022-08-11T03:10:10.907Z,99.90
2022-08-11T03:13:08.053Z,99.90
2022-08-11T03:16:04.698Z,99.90
2022-08-11T03:18:39.612Z,99.90
2022-08-11T03:21:14.435Z,99.90
2022-08-11T03:23:51.130Z,99.90
2022-08-11T03:26:27.001Z,99.90
2022-08-11T03:29:02.589Z,99.90
2022-08-11T03:31:35.573Z,99.90
2022-08-11T03:34:08.390Z,99.90
2022-08-11T03:37:16.207Z,99.90
2022-08-11T03:39:56.244Z,99.90
2022-08-11T03:42:33.645Z,99.90
2022-08-11T03:45:08.302Z,99.90
2022-08-11T03:47:52.649Z,99.90
2022-08-11T03:50:50.807Z,99.90
2022-08-11T03:53:45.332Z,99.90
2022-08-11T03:56:49.797Z,99.90
2022-08-11T03:59:59.738Z,99.90
2022-08-11T04:03:02.994Z,99.90
2022-08-11T04:05:51.266Z,99.90
2022-08-11T04:08:52.078Z,99.90
2022-08-11T04:11:46.304Z,99.90
2022-08-11T04:15:01.619Z,99.90
2022-08-11T04:18:06.349Z,99.90
2022-08-11T04:21:16.506Z,99.90
2022-08-11T04:24:37.853Z,99.90
2022-08-11T04:27:46.209Z,99.90
2022-08-11T04:30:18.989Z,99.90
2022-08-11T04:33:09.173Z,99.90
2022-08-11T04:35:48.794Z,99.90
2022-08-11T04:39:05.752Z,99.90
2022-08-11T04:42:15.200Z,99.90
2022-08-11T04:45:24.869Z,99.90
2022-08-11T04:48:37.030Z,99.90
2022-08-11T04:51:57.746Z,99.90
2022-08-11T04:55:01.672Z,99.90
2022-08-11T04:58:00.014Z,99.90
2022-08-11T05:00:51.281Z,99.90
2022-08-11T05:03:47.015Z,99.90
2022-08-11T05:06:58.184Z,99.90
2022-08-11T05:09:57.152Z,99.90
2022-08-11T05:12:37.635Z,99.90
2022-08-11T05:15:25.210Z,99.90
2022-08-11T05:18:21.167Z,99.90
2022-08-11T05:21:11.301Z,99.90
2022-08-11T05:24:01.320Z,99.90
2022-08-11T05:26:57.172Z,99.90
2022-08-11T05:29:59.768Z,99.90
2022-08-11T05:32:49.724Z,99.90
2022-08-11T05:36:00.919Z,99.90
2022-08-11T05:38:37.214Z,99.90
2022-08-11T05:41:23.136Z,99.90
2022-08-11T05:44:20.653Z,99.90
2022-08-11T05:47:07.925Z,99.90
2022-08-11T05:49:53.968Z,99.90
2022-08-11T05:52:42.738Z,99.90
2022-08-11T05:55:29.508Z,99.90
2022-08-11T05:58:00.391Z,99.90
2022-08-11T06:00:30.485Z,99.90
2022-08-11T06:03:01.243Z,99.90
2022-08-11T06:05:38.408Z,99.90
2022-08-11T06:08:13.249Z,99.90
2022-08-11T06:10:44.207Z,99.90
2022-08-11T06:13:17.291Z,99.90
2022-08-11T06:15:48.522Z,99.90
2022-08-11T06:18:17.763Z,99.90
2022-08-11T06:20:49.015Z,99.90
2022-08-11T06:23:19.506Z,99.90
2022-08-11T06:25:48.108Z,99.90
2022-08-11T06:28:20.744Z,99.90
2022-08-11T06:30:51.398Z,99.90
2022-08-11T06:33:30.912Z,99.90
2022-08-11T06:36:04.780Z,99.90
2022-08-11T06:38:48.308Z,99.90
2022-08-11T06:41:38.989Z,99.90
2022-08-11T06:44:22.047Z,99.90
2022-08-11T06:46:54.659Z,99.90
2022-08-11T06:49:50.673Z,99.90
2022-08-11T06:52:34.745Z,99.90
2022-08-11T06:55:55.508Z,99.90
2022-08-11T06:58:19.461Z,99.90
2022-08-11T07:00:49.851Z,99.90
2022-08-11T07:03:20.659Z,99.90
2022-08-11T07:05:51.863Z,99.90
2022-08-11T07:09:30.016Z,99.90
2022-08-11T07:12:56.270Z,99.90
2022-08-11T07:16:13.291Z,99.90
2022-08-11T07:18:55.443Z,99.90
2022-08-11T07:22:02.262Z,99.90
2022-08-11T07:25:09.619Z,99.90
2022-08-11T07:28:01.206Z,99.90
2022-08-11T07:30:29.728Z,99.90
2022-08-11T07:33:00.431Z,99.90
2022-08-11T07:35:35.950Z,99.90
2022-08-11T07:38:07.237Z,99.90
2022-08-11T07:40:36.590Z,99.90
2022-08-11T07:43:07.030Z,99.90
2022-08-11T07:45:53.574Z,99.90
2022-08-11T07:48:39.501Z,99.90
2022-08-11T07:51:26.635Z,99.90
2022-08-11T07:53:58.655Z,99.90
2022-08-11T07:56:55.554Z,99.90
2022-08-11T08:00:03.478Z,99.90
2022-08-11T08:02:50.488Z,99.90
2022-08-11T08:05:38.099Z,99.90
2022-08-11T08:08:27.624Z,99.90
2022-08-11T08:11:15.725Z,99.90
2022-08-11T08:14:01.825Z,99.90
2022-08-11T08:16:48.860Z,99.90
2022-08-11T08:19:20.604Z,99.90
2022-08-11T08:21:49.545Z,99.90
2022-08-11T08:24:21.093Z,99.90
2022-08-11T08:27:03.132Z,99.90
2022-08-11T08:29:52.398Z,99.90
2022-08-11T08:32:21.806Z,99.90
2022-08-11T08:34:51.424Z,99.90
2022-08-11T08:37:45.450Z,99.90
2022-08-11T08:40:14.091Z,99.90
2022-08-11T08:42:51.330Z,99.90
2022-08-11T08:45:19.502Z,99.90
2022-08-11T08:47:54.121Z,99.90
2022-08-11T08:50:46.846Z,99.90
2022-08-11T08:53:16.707Z,99.90
2022-08-11T08:55:47.795Z,99.90
2022-08-11T08:58:17.469Z,99.90
2022-08-11T09:00:48.259Z,99.90
2022-08-11T09:03:40.950Z,99.90
2022-08-11T09:06:04.429Z,99.90
2022-08-11T09:08:33.784Z,99.90
2022-08-11T09:11:21.385Z,99.90
2022-08-11T09:14:05.540Z,99.90
2022-08-11T09:16:35.277Z,99.90
2022-08-11T09:19:03.980Z,99.90
2022-08-11T09:21:48.213Z,99.90
2022-08-11T09:24:35.468Z,99.90
2022-08-11T09:27:08.324Z,99.90
2022-08-11T09:29:37.137Z,99.90
2022-08-11T09:32:07.181Z,99.90
2022-08-11T09:34:37.325Z,99.90
2022-08-11T09:37:53.711Z,99.90
2022-08-11T09:40:30.239Z,99.90
2022-08-11T09:43:18.161Z,99.90
2022-08-11T09:45:50.515Z,99.90
2022-08-11T09:48:19.280Z,99.90
2022-08-11T09:50:51.195Z,99.90
2022-08-11T09:53:36.181Z,99.90
2022-08-11T09:56:30.682Z,99.90
2022-08-11T09:59:02.264Z,99.90
2022-08-11T10:01:35.516Z,99.90
2022-08-11T10:04:08.098Z,99.90
2022-08-11T10:06:56.425Z,99.90
2022-08-11T10:09:26.091Z,99.90
2022-08-11T10:11:59.152Z,99.90
2022-08-11T10:14:49.101Z,99.90
2022-08-11T10:17:20.714Z,99.90
2022-08-11T10:20:04.202Z,99.90
2022-08-11T10:22:52.004Z,99.90
2022-08-11T10:25:53.238Z,99.90
2022-08-11T10:28:33.408Z,99.90
2022-08-11T10:31:29.032Z,99.90
2022-08-11T10:34:08.304Z,99.90
2022-08-11T10:36:44.931Z,99.90
2022-08-11T10:39:18.038Z,99.90
2022-08-11T10:42:08.223Z,99.90
2022-08-11T10:44:41.963Z,99.90
2022-08-11T10:47:32.347Z,99.90
2022-08-11T10:50:18.282Z,99.90
2022-08-11T10:53:06.848Z,99.90
2022-08-11T10:55:53.941Z,99.90
2022-08-11T10:58:44.696Z,99.90
2022-08-11T11:01:14.662Z,99.90
2022-08-11T11:03:44.626Z,99.90
2022-08-11T11:06:29.464Z,99.90
2022-08-11T11:09:05.878Z,99.90
2022-08-11T11:11:57.262Z,99.90
2022-08-11T11:14:49.784Z,99.90
2022-08-11T11:17:45.263Z,99.90
2022-08-11T11:20:34.681Z,99.90
2022-08-11T11:23:11.068Z,99.80
2022-08-11T11:26:06.578Z,99.80
2022-08-11T11:28:51.010Z,99.90
2022-08-11T11:31:33.267Z,99.50
2022-08-11T11:34:15.543Z,99.50
2022-08-11T11:36:49.455Z,99.30
2022-08-11T11:39:21.542Z,99.10
2022-08-11T11:41:51.900Z,99.20
2022-08-11T11:44:22.750Z,99.10
2022-08-11T11:46:51.425Z,98.80
2022-08-11T11:51:58.060Z,98.60
2022-08-11T11:54:28.541Z,98.60
2022-08-11T11:56:57.709Z,98.40
2022-08-11T11:59:45.725Z,98.30
2022-08-11T12:02:16.968Z,98.00
2022-08-11T12:04:48.741Z,96.70
2022-08-11T12:07:35.873Z,96.20
2022-08-11T12:10:04.272Z,96.30
2022-08-11T12:12:50.364Z,96.50
2022-08-11T12:15:19.781Z,96.10
2022-08-11T12:18:08.329Z,95.90
2022-08-11T12:20:36.515Z,95.50
2022-08-11T12:23:23.706Z,95.00
2022-08-11T12:26:27.298Z,93.90
2022-08-11T12:28:58.568Z,92.70
2022-08-11T12:31:26.849Z,91.90
2022-08-11T12:33:56.064Z,91.80
2022-08-11T12:36:24.493Z,91.30
2022-08-11T12:38:55.966Z,90.80
2022-08-11T12:41:42.060Z,91.10
2022-08-11T12:44:30.217Z,90.70
2022-08-11T12:47:00.924Z,90.80
2022-08-11T12:49:49.408Z,89.60
2022-08-11T12:52:23.236Z,85.40
2022-08-11T12:54:59.688Z,86.00
2022-08-11T12:57:49.595Z,83.40
2022-08-11T13:00:36.739Z,85.80
2022-08-11T13:03:25.051Z,87.90
2022-08-11T13:05:56.489Z,86.40
2022-08-11T13:08:26.060Z,86.70
2022-08-11T13:11:14.489Z,85.60
2022-08-11T13:13:54.907Z,84.50
2022-08-11T13:16:27.476Z,86.70
2022-08-11T13:18:56.400Z,87.50
2022-08-11T13:21:24.882Z,87.10
2022-08-11T13:24:00.758Z,86.80
2022-08-11T13:26:47.014Z,86.00
2022-08-11T13:29:19.614Z,87.30
2022-08-11T13:31:47.861Z,86.70
2022-08-11T13:34:17.449Z,86.60
2022-08-11T13:36:46.566Z,86.80
2022-08-11T13:39:15.269Z,88.70
2022-08-11T13:41:47.775Z,87.90
2022-08-11T13:44:23.437Z,87.50
2022-08-11T13:46:55.257Z,87.20
2022-08-11T13:49:23.759Z,88.30
2022-08-11T13:51:52.495Z,88.00
2022-08-11T13:54:24.471Z,86.50
2022-08-11T13:56:56.732Z,86.50
2022-08-11T13:59:29.945Z,86.30
2022-08-11T14:02:28.605Z,84.90
2022-08-11T14:04:55.727Z,84.30
2022-08-11T14:07:25.957Z,83.30
2022-08-11T14:09:58.556Z,82.90
2022-08-11T14:12:48.603Z,83.10
2022-08-11T14:15:22.747Z,80.90
2022-08-11T14:17:55.790Z,81.20
2022-08-11T14:20:40.154Z,81.20
2022-08-11T14:23:11.295Z,81.10
2022-08-11T14:26:03.732Z,80.60
2022-08-11T14:28:41.530Z,78.70
2022-08-11T14:31:15.413Z,79.40
2022-08-11T14:33:59.887Z,78.60
2022-08-11T14:36:33.851Z,78.20
2022-08-11T14:39:04.453Z,76.50
2022-08-11T14:42:11.286Z,76.70
2022-08-11T14:45:00.595Z,76.60
2022-08-11T14:47:30.259Z,76.40
2022-08-11T14:50:11.128Z,75.30
2022-08-11T14:52:45.395Z,75.30
2022-08-11T14:55:32.406Z,75.50
2022-08-11T14:58:02.752Z,74.30
2022-08-11T15:00:34.140Z,74.70
2022-08-11T15:03:12.429Z,72.90
2022-08-11T15:05:56.119Z,74.40
2022-08-11T15:08:41.850Z,73.90
2022-08-11T15:11:31.236Z,74.00
2022-08-11T15:14:01.211Z,73.30
2022-08-11T15:16:54.150Z,73.00
2022-08-11T15:19:22.322Z,72.50
2022-08-11T15:22:08.788Z,72.40
2022-08-11T15:24:37.436Z,72.80
2022-08-11T15:27:28.058Z,72.60
2022-08-11T15:30:20.935Z,71.40
2022-08-11T15:33:25.417Z,71.20
2022-08-11T15:36:11.019Z,71.80
2022-08-11T15:38:43.878Z,70.30
2022-08-11T15:41:35.777Z,69.20
2022-08-11T15:44:44.538Z,70.50
2022-08-11T15:47:15.237Z,69.20
2022-08-11T15:50:10.397Z,69.10
2022-08-11T15:52:42.323Z,68.40
2022-08-11T15:55:11.106Z,68.60
2022-08-11T15:57:58.044Z,67.50
2022-08-11T16:00:44.521Z,69.00
2022-08-11T16:04:06.721Z,67.50
2022-08-11T16:06:23.887Z,67.30
2022-08-11T16:08:56.289Z,67.00
2022-08-11T16:11:24.839Z,66.30
2022-08-11T16:14:11.477Z,65.80
2022-08-11T16:16:41.113Z,66.30
2022-08-11T16:19:10.919Z,65.50
2022-08-11T16:21:43.077Z,65.20
2022-08-11T16:27:04.504Z,65.10
2022-08-11T16:27:12.952Z,64.60
2022-08-11T16:29:45.591Z,65.00
2022-08-11T16:32:20.634Z,64.20
2022-08-11T16:35:13.266Z,64.40
2022-08-11T16:38:01.754Z,64.00
2022-08-11T16:40:30.868Z,66.60
2022-08-11T16:43:18.441Z,63.40
2022-08-11T16:46:04.863Z,64.20
2022-08-11T16:48:38.469Z,63.20
2022-08-11T16:51:08.206Z,63.50
2022-08-11T16:53:59.543Z,64.10
2022-08-11T16:56:33.257Z,63.20
2022-08-11T16:59:16.232Z,64.80
2022-08-11T17:01:49.651Z,65.00
2022-08-11T17:04:43.100Z,65.90
2022-08-11T17:07:41.691Z,65.80
2022-08-11T17:10:53.257Z,66.30
2022-08-11T17:13:33.133Z,66.20
2022-08-11T17:16:11.825Z,66.80
2022-08-11T17:18:45.700Z,68.30
2022-08-11T17:21:18.512Z,67.60
2022-08-11T17:23:50.140Z,67.60
2022-08-11T17:26:26.230Z,69.10
2022-08-11T17:28:58.712Z,68.50
2022-08-11T17:31:45.918Z,69.80
2022-08-11T17:34:33.272Z,69.90
2022-08-11T17:37:01.773Z,70.20
2022-08-11T17:39:32.804Z,68.90
2022-08-11T17:42:21.013Z,70.80
2022-08-11T17:45:13.517Z,71.00
2022-08-11T17:47:59.978Z,71.60
2022-08-11T17:50:28.506Z,71.40
2022-08-11T17:53:15.408Z,70.80
2022-08-11T17:56:01.849Z,70.80
2022-08-11T17:58:49.781Z,72.70
2022-08-11T18:01:19.829Z,72.40
2022-08-11T18:03:57.942Z,73.00
2022-08-11T18:06:33.579Z,72.60
2022-08-11T18:09:22.575Z,74.00
2022-08-11T18:12:11.864Z,72.90
2022-08-11T18:15:02.226Z,73.40
2022-08-11T18:17:47.933Z,75.10
2022-08-11T18:20:33.523Z,75.80
2022-08-11T18:23:40.476Z,75.90
2022-08-11T18:26:29.709Z,76.40
2022-08-11T18:29:16.303Z,76.30
2022-08-11T18:32:08.337Z,77.20
2022-08-11T18:34:59.159Z,77.60
2022-08-11T18:37:47.690Z,78.30
2022-08-11T18:40:37.585Z,79.10
2022-08-11T18:43:30.322Z,79.30
2022-08-11T18:46:20.291Z,79.80
2022-08-11T18:49:15.370Z,80.50
2022-08-11T18:52:05.017Z,81.00
2022-08-11T18:54:53.566Z,81.70
2022-08-11T18:57:49.466Z,82.50
2022-08-11T19:00:41.007Z,82.80
2022-08-11T19:03:28.733Z,83.40
2022-08-11T19:06:39.237Z,84.50
2022-08-11T19:09:25.916Z,84.50
2022-08-11T19:12:13.604Z,85.80
2022-08-11T19:15:00.490Z,86.30
2022-08-11T19:17:49.001Z,86.90
2022-08-11T19:20:39.057Z,88.30
2022-08-11T19:23:28.404Z,88.80
2022-08-11T19:26:15.613Z,89.50
2022-08-11T19:29:04.088Z,90.20
2022-08-11T19:31:50.532Z,90.50
2022-08-11T19:34:43.443Z,90.90
2022-08-11T19:37:30.826Z,91.40
2022-08-11T19:40:36.156Z,91.70
2022-08-11T19:43:26.463Z,92.00
2022-08-11T19:46:16.052Z,92.80
2022-08-11T19:49:03.187Z,93.00
2022-08-11T19:51:54.244Z,93.20
2022-08-11T19:54:43.629Z,93.90
2022-08-11T19:57:37.090Z,94.20
2022-08-11T20:00:30.055Z,94.70
2022-08-11T20:03:16.027Z,95.00
2022-08-11T20:06:02.070Z,95.50
2022-08-11T20:08:48.692Z,95.70
2022-08-11T20:11:35.317Z,96.40
2022-08-11T20:14:24.765Z,96.40
2022-08-11T20:17:12.559Z,96.70
2022-08-11T20:22:49.289Z,97.80
2022-08-11T20:25:36.863Z,98.30
2022-08-11T20:28:23.602Z,98.60
2022-08-11T20:31:12.611Z,98.50
2022-08-11T20:33:58.877Z,99.00
2022-08-11T20:36:48.730Z,99.30
2022-08-11T20:39:41.855Z,99.30
2022-08-11T20:42:30.665Z,99.80
2022-08-11T20:45:18.798Z,99.90
2022-08-11T20:48:15.374Z,99.90
2022-08-11T20:51:06.373Z,99.90
2022-08-11T20:53:53.732Z,99.90
2022-08-11T20:56:41.448Z,99.90
2022-08-11T20:59:30.114Z,99.90
2022-08-11T21:02:22.557Z,99.90
2022-08-11T21:05:13.089Z,99.90
2022-08-11T21:08:07.844Z,99.90
2022-08-11T21:10:56.485Z,99.90
2022-08-11T21:13:47.161Z,99.90
2022-08-11T21:16:42.758Z,99.90
2022-08-11T21:19:59.752Z,99.90
2022-08-11T21:22:59.047Z,99.90
2022-08-11T21:25:55.311Z,99.90
2022-08-11T21:28:45.470Z,99.90
2022-08-11T21:31:31.482Z,99.90
2022-08-11T21:34:18.043Z,99.90
2022-08-11T21:37:04.502Z,99.90
2022-08-11T21:39:54.037Z,99.90
2022-08-11T21:42:41.114Z,99.90
2022-08-11T21:45:28.869Z,99.90
2022-08-11T21:48:15.456Z,99.90
2022-08-11T21:51:00.945Z,99.90
2022-08-11T21:53:46.766Z,99.90
2022-08-11T21:56:34.301Z,99.90
2022-08-11T21:59:20.315Z,99.90
2022-08-11T22:02:12.440Z,99.90
2022-08-11T22:04:58.444Z,99.90
2022-08-11T22:07:44.561Z,99.90
2022-08-11T22:10:42.340Z,99.90
2022-08-11T22:13:31.411Z,99.90
2022-08-11T22:16:18.015Z,99.90
2022-08-11T22:19:04.582Z,99.90
2022-08-11T22:22:01.147Z,99.90
2022-08-11T22:24:50.361Z,99.90
2022-08-11T22:27:35.980Z,99.90
2022-08-11T22:30:24.360Z,99.90
2022-08-11T22:33:10.850Z,99.90
2022-08-11T22:35:58.266Z,99.90
2022-08-11T22:38:45.306Z,99.90
2022-08-11T22:41:31.798Z,99.90
2022-08-11T22:44:17.389Z,99.90
2022-08-11T22:47:05.152Z,99.90
2022-08-11T22:49:58.049Z,99.90
2022-08-11T22:52:44.800Z,99.90
2022-08-11T22:55:31.095Z,99.90
2022-08-11T22:58:16.661Z,99.90
2022-08-11T23:01:04.260Z,99.90
2022-08-11T23:03:52.251Z,99.90
2022-08-11T23:06:38.350Z,99.90
2022-08-11T23:09:25.403Z,99.90
2022-08-11T23:12:11.680Z,99.90
2022-08-11T23:14:58.419Z,99.90
2022-08-11T23:17:45.820Z,99.90
2022-08-11T23:20:40.986Z,99.90
2022-08-11T23:23:28.081Z,99.90
2022-08-11T23:26:15.029Z,99.90
2022-08-11T23:29:06.078Z,99.90
2022-08-11T23:31:53.902Z,99.90
2022-08-11T23:35:36.918Z,99.90
2022-08-11T23:37:49.552Z,99.90
2022-08-11T23:40:35.077Z,99.90
2022-08-11T23:43:21.517Z,99.90
2022-08-11T23:46:07.303Z,99.90
2022-08-11T23:48:55.221Z,99.90
2022-08-11T23:51:41.822Z,99.90
2022-08-11T23:54:33.839Z,99.90
2022-08-11T23:57:23.114Z,99.90
